sensor_id;sensor_type;location;lat;lon;timestamp;pressure;altitude;pressure_sealevel;temperature;humidity
34034;BME280;63481;52.588;22.472;2023-06-14T00:00:03;100398.65;;;12.17;100.00
34034;BME280;63481;52.588;22.472;2023-06-14T00:01:17;100398.14;;;12.17;100.00
34034;BME280;63481;52.588;22.472;2023-06-14T00:02:12;100398.95;;;12.15;100.00
34034;BME280;63481;52.588;22.472;2023-06-14T00:03:05;100392.84;;;12.17;100.00
34034;BME280;63481;52.588;22.472;2023-06-14T00:03:57;100395.68;;;12.15;100.00
34034;BME280;63481;52.588;22.472;2023-06-14T00:04:51;100397.20;;;12.16;100.00
34034;BME280;63481;52.588;22.472;2023-06-14T00:05:45;100394.81;;;12.16;100.00
34034;BME280;63481;52.588;22.472;2023-06-14T00:06:39;100392.63;;;12.17;100.00
34034;BME280;63481;52.588;22.472;2023-06-14T00:07:39;100391.35;;;12.17;100.00
34034;BME280;63481;52.588;22.472;2023-06-14T00:08:36;100393.27;;;12.18;100.00
34034;BME280;63481;52.588;22.472;2023-06-14T00:09:30;100391.44;;;12.18;100.00
34034;BME280;63481;52.588;22.472;2023-06-14T00:10:22;100396.67;;;12.13;100.00
34034;BME280;63481;52.588;22.472;2023-06-14T00:11:15;100392.68;;;12.12;100.00
34034;BME280;63481;52.588;22.472;2023-06-14T00:12:08;100393.69;;;12.19;100.00
34034;BME280;63481;52.588;22.472;2023-06-14T00:13:04;100394.72;;;12.18;100.00
34034;BME280;63481;52.588;22.472;2023-06-14T00:13:57;100394.59;;;12.12;100.00
34034;BME280;63481;52.588;22.472;2023-06-14T00:14:50;100391.91;;;12.10;100.00
34034;BME280;63481;52.588;22.472;2023-06-14T00:15:42;100394.49;;;12.15;100.00
34034;BME280;63481;52.588;22.472;2023-06-14T00:16:35;100393.27;;;12.12;100.00
34034;BME280;63481;52.588;22.472;2023-06-14T00:17:29;100393.83;;;12.14;100.00
34034;BME280;63481;52.588;22.472;2023-06-14T00:18:23;100396.13;;;12.17;100.00
34034;BME280;63481;52.588;22.472;2023-06-14T00:19:21;100399.19;;;12.23;100.00
34034;BME280;63481;52.588;22.472;2023-06-14T00:20:14;100400.83;;;12.23;100.00
34034;BME280;63481;52.588;22.472;2023-06-14T00:21:06;100399.98;;;12.19;100.00
34034;BME280;63481;52.588;22.472;2023-06-14T00:21:59;100398.82;;;12.13;100.00
34034;BME280;63481;52.588;22.472;2023-06-14T00:22:52;100401.30;;;12.12;100.00
34034;BME280;63481;52.588;22.472;2023-06-14T00:23:45;100402.11;;;12.11;100.00
34034;BME280;63481;52.588;22.472;2023-06-14T00:24:38;100400.48;;;12.12;100.00
34034;BME280;63481;52.588;22.472;2023-06-14T00:25:31;100402.33;;;12.11;100.00
34034;BME280;63481;52.588;22.472;2023-06-14T00:26:23;100405.23;;;12.12;100.00
34034;BME280;63481;52.588;22.472;2023-06-14T00:27:18;100400.69;;;12.16;100.00
34034;BME280;63481;52.588;22.472;2023-06-14T00:28:11;100400.08;;;12.23;100.00
34034;BME280;63481;52.588;22.472;2023-06-14T00:29:03;100399.58;;;12.25;100.00
34034;BME280;63481;52.588;22.472;2023-06-14T00:29:56;100399.91;;;12.28;100.00
34034;BME280;63481;52.588;22.472;2023-06-14T00:30:52;100396.83;;;12.24;99.96
34034;BME280;63481;52.588;22.472;2023-06-14T00:31:45;100396.59;;;12.14;99.99
34034;BME280;63481;52.588;22.472;2023-06-14T00:32:37;100394.92;;;12.11;100.00
34034;BME280;63481;52.588;22.472;2023-06-14T00:33:30;100391.77;;;12.09;100.00
34034;BME280;63481;52.588;22.472;2023-06-14T00:34:23;100388.34;;;12.09;100.00
34034;BME280;63481;52.588;22.472;2023-06-14T00:35:16;100387.45;;;12.09;100.00
34034;BME280;63481;52.588;22.472;2023-06-14T00:36:08;100386.33;;;12.10;100.00
34034;BME280;63481;52.588;22.472;2023-06-14T00:37:01;100385.92;;;12.09;100.00
34034;BME280;63481;52.588;22.472;2023-06-14T00:37:54;100385.15;;;12.05;100.00
34034;BME280;63481;52.588;22.472;2023-06-14T00:38:47;100383.03;;;12.04;100.00
34034;BME280;63481;52.588;22.472;2023-06-14T00:39:39;100384.84;;;12.04;100.00
34034;BME280;63481;52.588;22.472;2023-06-14T00:40:32;100384.33;;;12.06;100.00
34034;BME280;63481;52.588;22.472;2023-06-14T00:41:26;100383.57;;;12.10;100.00
34034;BME280;63481;52.588;22.472;2023-06-14T00:42:26;100385.09;;;12.08;100.00
34034;BME280;63481;52.588;22.472;2023-06-14T00:43:19;100384.38;;;12.02;100.00
34034;BME280;63481;52.588;22.472;2023-06-14T00:44:13;100380.23;;;12.00;100.00
34034;BME280;63481;52.588;22.472;2023-06-14T00:45:08;100381.85;;;11.99;100.00
34034;BME280;63481;52.588;22.472;2023-06-14T00:46:01;100379.39;;;11.98;100.00
34034;BME280;63481;52.588;22.472;2023-06-14T00:46:54;100373.60;;;11.98;100.00
34034;BME280;63481;52.588;22.472;2023-06-14T00:47:50;100369.59;;;12.00;100.00
34034;BME280;63481;52.588;22.472;2023-06-14T00:48:45;100370.56;;;12.03;100.00
34034;BME280;63481;52.588;22.472;2023-06-14T00:49:38;100368.14;;;12.02;100.00
34034;BME280;63481;52.588;22.472;2023-06-14T00:50:31;100368.41;;;11.99;100.00
34034;BME280;63481;52.588;22.472;2023-06-14T00:51:25;100366.30;;;11.99;100.00
34034;BME280;63481;52.588;22.472;2023-06-14T00:52:19;100368.94;;;11.98;100.00
34034;BME280;63481;52.588;22.472;2023-06-14T00:53:12;100366.02;;;11.97;100.00
34034;BME280;63481;52.588;22.472;2023-06-14T00:54:07;100368.17;;;11.95;100.00
34034;BME280;63481;52.588;22.472;2023-06-14T00:55:03;100365.25;;;11.93;100.00
34034;BME280;63481;52.588;22.472;2023-06-14T00:55:56;100367.27;;;11.94;100.00
34034;BME280;63481;52.588;22.472;2023-06-14T00:56:49;100364.84;;;11.93;100.00
34034;BME280;63481;52.588;22.472;2023-06-14T00:57:42;100361.23;;;11.94;100.00
34034;BME280;63481;52.588;22.472;2023-06-14T00:58:35;100364.14;;;11.98;100.00
34034;BME280;63481;52.588;22.472;2023-06-14T00:59:27;100364.38;;;11.99;100.00
34034;BME280;63481;52.588;22.472;2023-06-14T01:00:20;100367.44;;;12.03;100.00
34034;BME280;63481;52.588;22.472;2023-06-14T01:01:13;100365.60;;;12.00;100.00
34034;BME280;63481;52.588;22.472;2023-06-14T01:02:06;100366.72;;;11.97;100.00
34034;BME280;63481;52.588;22.472;2023-06-14T01:02:59;100366.35;;;11.97;100.00
34034;BME280;63481;52.588;22.472;2023-06-14T01:03:51;100365.65;;;11.97;100.00
34034;BME280;63481;52.588;22.472;2023-06-14T01:04:48;100364.91;;;11.97;100.00
34034;BME280;63481;52.588;22.472;2023-06-14T01:05:41;100368.38;;;11.94;100.00
34034;BME280;63481;52.588;22.472;2023-06-14T01:09:15;100365.50;;;11.94;100.00
34034;BME280;63481;52.588;22.472;2023-06-14T01:10:53;100368.94;;;11.99;100.00
34034;BME280;63481;52.588;22.472;2023-06-14T01:11:43;100364.59;;;12.00;100.00
34034;BME280;63481;52.588;22.472;2023-06-14T01:13:12;100361.90;;;12.00;100.00
34034;BME280;63481;52.588;22.472;2023-06-14T01:14:06;100359.52;;;12.00;100.00
34034;BME280;63481;52.588;22.472;2023-06-14T01:15:00;100356.43;;;12.01;100.00
34034;BME280;63481;52.588;22.472;2023-06-14T01:15:55;100357.95;;;12.01;100.00
34034;BME280;63481;52.588;22.472;2023-06-14T01:16:48;100358.53;;;11.99;100.00
34034;BME280;63481;52.588;22.472;2023-06-14T01:17:49;100356.96;;;12.01;100.00
34034;BME280;63481;52.588;22.472;2023-06-14T01:18:44;100355.98;;;12.00;100.00
34034;BME280;63481;52.588;22.472;2023-06-14T01:19:41;100352.08;;;12.00;100.00
34034;BME280;63481;52.588;22.472;2023-06-14T01:20:35;100350.00;;;12.03;100.00
34034;BME280;63481;52.588;22.472;2023-06-14T01:21:30;100349.69;;;12.00;100.00
34034;BME280;63481;52.588;22.472;2023-06-14T01:22:25;100348.44;;;12.04;100.00
34034;BME280;63481;52.588;22.472;2023-06-14T01:23:22;100347.63;;;12.07;100.00
34034;BME280;63481;52.588;22.472;2023-06-14T01:24:15;100347.09;;;12.11;100.00
34034;BME280;63481;52.588;22.472;2023-06-14T01:25:08;100347.86;;;12.12;100.00
34034;BME280;63481;52.588;22.472;2023-06-14T01:26:01;100345.27;;;12.10;100.00
34034;BME280;63481;52.588;22.472;2023-06-14T01:26:57;100347.70;;;12.09;100.00
34034;BME280;63481;52.588;22.472;2023-06-14T01:28:02;100348.00;;;12.10;100.00
34034;BME280;63481;52.588;22.472;2023-06-14T01:28:55;100347.67;;;12.07;100.00
34034;BME280;63481;52.588;22.472;2023-06-14T01:29:51;100347.30;;;12.02;100.00
34034;BME280;63481;52.588;22.472;2023-06-14T01:30:54;100348.99;;;12.00;100.00
34034;BME280;63481;52.588;22.472;2023-06-14T01:31:47;100347.81;;;12.05;100.00
34034;BME280;63481;52.588;22.472;2023-06-14T01:32:41;100349.12;;;12.00;100.00
34034;BME280;63481;52.588;22.472;2023-06-14T01:33:34;100350.21;;;12.02;100.00
34034;BME280;63481;52.588;22.472;2023-06-14T01:34:29;100349.30;;;12.02;100.00
34034;BME280;63481;52.588;22.472;2023-06-14T01:35:22;100349.84;;;11.99;100.00
34034;BME280;63481;52.588;22.472;2023-06-14T01:36:15;100346.69;;;11.99;100.00
34034;BME280;63481;52.588;22.472;2023-06-14T01:37:08;100344.22;;;12.00;100.00
34034;BME280;63481;52.588;22.472;2023-06-14T01:38:03;100342.25;;;11.99;100.00
34034;BME280;63481;52.588;22.472;2023-06-14T01:38:58;100334.27;;;12.00;100.00
34034;BME280;63481;52.588;22.472;2023-06-14T01:39:53;100333.60;;;12.01;100.00
34034;BME280;63481;52.588;22.472;2023-06-14T01:40:47;100333.90;;;12.01;100.00
34034;BME280;63481;52.588;22.472;2023-06-14T01:41:42;100333.68;;;12.03;100.00
34034;BME280;63481;52.588;22.472;2023-06-14T01:42:36;100334.54;;;12.02;100.00
34034;BME280;63481;52.588;22.472;2023-06-14T01:43:30;100328.70;;;12.03;100.00
34034;BME280;63481;52.588;22.472;2023-06-14T01:44:23;100328.23;;;12.01;100.00
34034;BME280;63481;52.588;22.472;2023-06-14T01:45:18;100325.39;;;11.99;100.00
34034;BME280;63481;52.588;22.472;2023-06-14T01:46:13;100324.16;;;12.06;100.00
34034;BME280;63481;52.588;22.472;2023-06-14T01:47:07;100322.70;;;12.08;100.00
34034;BME280;63481;52.588;22.472;2023-06-14T01:48:00;100323.46;;;12.08;100.00
34034;BME280;63481;52.588;22.472;2023-06-14T01:48:53;100319.16;;;12.09;100.00
34034;BME280;63481;52.588;22.472;2023-06-14T01:49:46;100322.23;;;12.03;100.00
34034;BME280;63481;52.588;22.472;2023-06-14T01:50:39;100322.17;;;12.01;100.00
34034;BME280;63481;52.588;22.472;2023-06-14T01:51:32;100317.39;;;12.02;100.00
34034;BME280;63481;52.588;22.472;2023-06-14T01:52:25;100319.88;;;11.99;100.00
34034;BME280;63481;52.588;22.472;2023-06-14T01:53:17;100317.77;;;12.02;100.00
34034;BME280;63481;52.588;22.472;2023-06-14T01:54:10;100319.70;;;12.02;100.00
34034;BME280;63481;52.588;22.472;2023-06-14T01:55:05;100320.94;;;11.96;100.00
34034;BME280;63481;52.588;22.472;2023-06-14T01:55:58;100323.14;;;11.91;100.00
34034;BME280;63481;52.588;22.472;2023-06-14T01:56:51;100320.46;;;11.89;100.00
34034;BME280;63481;52.588;22.472;2023-06-14T01:57:44;100321.20;;;11.87;100.00
34034;BME280;63481;52.588;22.472;2023-06-14T01:58:37;100318.50;;;11.87;100.00
34034;BME280;63481;52.588;22.472;2023-06-14T01:59:30;100319.63;;;11.91;100.00
34034;BME280;63481;52.588;22.472;2023-06-14T02:00:24;100316.17;;;11.92;100.00
34034;BME280;63481;52.588;22.472;2023-06-14T02:01:18;100314.80;;;11.93;100.00
34034;BME280;63481;52.588;22.472;2023-06-14T02:02:11;100311.65;;;11.91;100.00
34034;BME280;63481;52.588;22.472;2023-06-14T02:03:04;100312.06;;;11.91;100.00
34034;BME280;63481;52.588;22.472;2023-06-14T02:03:56;100308.40;;;11.93;100.00
34034;BME280;63481;52.588;22.472;2023-06-14T02:04:49;100308.48;;;11.92;100.00
34034;BME280;63481;52.588;22.472;2023-06-14T02:05:42;100308.58;;;11.89;100.00
34034;BME280;63481;52.588;22.472;2023-06-14T02:06:35;100306.91;;;11.89;100.00
34034;BME280;63481;52.588;22.472;2023-06-14T02:07:28;100306.40;;;11.88;100.00
34034;BME280;63481;52.588;22.472;2023-06-14T02:08:21;100303.14;;;11.91;100.00
34034;BME280;63481;52.588;22.472;2023-06-14T02:09:13;100305.19;;;11.94;100.00
34034;BME280;63481;52.588;22.472;2023-06-14T02:10:07;100303.89;;;11.98;100.00
34034;BME280;63481;52.588;22.472;2023-06-14T02:10:59;100305.10;;;11.95;100.00
34034;BME280;63481;52.588;22.472;2023-06-14T02:11:52;100308.06;;;11.90;100.00
34034;BME280;63481;52.588;22.472;2023-06-14T02:12:45;100310.23;;;11.88;100.00
34034;BME280;63481;52.588;22.472;2023-06-14T02:13:41;100309.33;;;11.88;100.00
34034;BME280;63481;52.588;22.472;2023-06-14T02:14:33;100309.95;;;11.89;100.00
34034;BME280;63481;52.588;22.472;2023-06-14T02:15:26;100306.90;;;11.89;100.00
34034;BME280;63481;52.588;22.472;2023-06-14T02:16:26;100304.71;;;11.89;100.00
34034;BME280;63481;52.588;22.472;2023-06-14T02:17:20;100307.52;;;11.87;100.00
34034;BME280;63481;52.588;22.472;2023-06-14T02:18:13;100308.48;;;11.86;100.00
34034;BME280;63481;52.588;22.472;2023-06-14T02:19:06;100309.16;;;11.89;100.00
34034;BME280;63481;52.588;22.472;2023-06-14T02:19:59;100309.98;;;11.88;100.00
34034;BME280;63481;52.588;22.472;2023-06-14T02:20:52;100310.46;;;11.91;100.00
34034;BME280;63481;52.588;22.472;2023-06-14T02:21:45;100308.96;;;11.93;100.00
34034;BME280;63481;52.588;22.472;2023-06-14T02:22:39;100303.87;;;11.92;100.00
34034;BME280;63481;52.588;22.472;2023-06-14T02:23:33;100307.69;;;11.93;100.00
34034;BME280;63481;52.588;22.472;2023-06-14T02:24:26;100309.44;;;11.92;100.00
34034;BME280;63481;52.588;22.472;2023-06-14T02:25:18;100306.23;;;11.99;100.00
34034;BME280;63481;52.588;22.472;2023-06-14T02:26:12;100304.13;;;12.00;100.00
34034;BME280;63481;52.588;22.472;2023-06-14T02:27:04;100304.95;;;11.99;100.00
34034;BME280;63481;52.588;22.472;2023-06-14T02:27:57;100305.59;;;11.94;100.00
34034;BME280;63481;52.588;22.472;2023-06-14T02:28:50;100307.23;;;11.92;100.00
34034;BME280;63481;52.588;22.472;2023-06-14T02:29:43;100303.58;;;11.93;100.00
34034;BME280;63481;52.588;22.472;2023-06-14T02:30:35;100303.01;;;11.95;100.00
34034;BME280;63481;52.588;22.472;2023-06-14T02:31:28;100306.00;;;11.95;100.00
34034;BME280;63481;52.588;22.472;2023-06-14T02:32:21;100305.31;;;11.95;100.00
34034;BME280;63481;52.588;22.472;2023-06-14T02:33:14;100305.55;;;11.98;100.00
34034;BME280;63481;52.588;22.472;2023-06-14T02:34:07;100305.98;;;11.98;100.00
34034;BME280;63481;52.588;22.472;2023-06-14T02:35:03;100304.52;;;11.96;100.00
34034;BME280;63481;52.588;22.472;2023-06-14T02:35:56;100306.34;;;11.94;100.00
34034;BME280;63481;52.588;22.472;2023-06-14T02:36:48;100307.31;;;11.93;100.00
34034;BME280;63481;52.588;22.472;2023-06-14T02:37:42;100301.94;;;11.93;100.00
34034;BME280;63481;52.588;22.472;2023-06-14T02:38:35;100303.17;;;11.95;100.00
34034;BME280;63481;52.588;22.472;2023-06-14T02:39:28;100303.54;;;11.95;100.00
34034;BME280;63481;52.588;22.472;2023-06-14T02:40:20;100301.85;;;11.96;100.00
34034;BME280;63481;52.588;22.472;2023-06-14T02:41:13;100303.07;;;11.97;100.00
34034;BME280;63481;52.588;22.472;2023-06-14T02:42:07;100301.70;;;12.00;100.00
34034;BME280;63481;52.588;22.472;2023-06-14T02:42:59;100305.13;;;12.04;100.00
34034;BME280;63481;52.588;22.472;2023-06-14T02:43:53;100302.08;;;12.04;100.00
34034;BME280;63481;52.588;22.472;2023-06-14T02:44:46;100304.59;;;12.06;100.00
34034;BME280;63481;52.588;22.472;2023-06-14T02:45:43;100303.91;;;12.08;100.00
34034;BME280;63481;52.588;22.472;2023-06-14T02:46:36;100300.41;;;12.10;100.00
34034;BME280;63481;52.588;22.472;2023-06-14T02:47:29;100297.42;;;12.13;100.00
34034;BME280;63481;52.588;22.472;2023-06-14T02:48:22;100302.04;;;12.13;100.00
34034;BME280;63481;52.588;22.472;2023-06-14T02:49:15;100300.42;;;12.13;100.00
34034;BME280;63481;52.588;22.472;2023-06-14T02:50:08;100298.36;;;12.17;100.00
34034;BME280;63481;52.588;22.472;2023-06-14T02:51:01;100299.91;;;12.17;100.00
34034;BME280;63481;52.588;22.472;2023-06-14T02:51:53;100298.09;;;12.24;100.00
34034;BME280;63481;52.588;22.472;2023-06-14T02:52:47;100296.27;;;12.27;100.00
34034;BME280;63481;52.588;22.472;2023-06-14T02:53:40;100298.50;;;12.27;99.96
34034;BME280;63481;52.588;22.472;2023-06-14T02:54:33;100297.05;;;12.22;99.92
34034;BME280;63481;52.588;22.472;2023-06-14T02:55:26;100297.04;;;12.17;99.98
34034;BME280;63481;52.588;22.472;2023-06-14T02:56:19;100295.42;;;12.17;100.00
34034;BME280;63481;52.588;22.472;2023-06-14T02:57:12;100299.61;;;12.14;100.00
34034;BME280;63481;52.588;22.472;2023-06-14T02:58:05;100300.15;;;12.12;100.00
34034;BME280;63481;52.588;22.472;2023-06-14T02:58:58;100298.23;;;12.19;100.00
34034;BME280;63481;52.588;22.472;2023-06-14T02:59:53;100294.09;;;12.15;100.00
34034;BME280;63481;52.588;22.472;2023-06-14T03:00:45;100294.36;;;12.10;100.00
34034;BME280;63481;52.588;22.472;2023-06-14T03:01:39;100293.14;;;12.07;100.00
34034;BME280;63481;52.588;22.472;2023-06-14T03:02:34;100296.05;;;12.02;100.00
34034;BME280;63481;52.588;22.472;2023-06-14T03:03:27;100292.48;;;11.99;100.00
34034;BME280;63481;52.588;22.472;2023-06-14T03:04:20;100290.27;;;12.01;100.00
34034;BME280;63481;52.588;22.472;2023-06-14T03:05:14;100290.92;;;12.01;100.00
34034;BME280;63481;52.588;22.472;2023-06-14T03:06:07;100292.57;;;12.01;100.00
34034;BME280;63481;52.588;22.472;2023-06-14T03:07:03;100292.23;;;12.01;100.00
34034;BME280;63481;52.588;22.472;2023-06-14T03:08:01;100294.27;;;11.97;100.00
34034;BME280;63481;52.588;22.472;2023-06-14T03:08:56;100289.27;;;11.97;100.00
34034;BME280;63481;52.588;22.472;2023-06-14T03:09:52;100296.04;;;11.98;100.00
34034;BME280;63481;52.588;22.472;2023-06-14T03:10:48;100298.52;;;11.97;100.00
34034;BME280;63481;52.588;22.472;2023-06-14T03:11:41;100301.05;;;11.99;100.00
34034;BME280;63481;52.588;22.472;2023-06-14T03:12:34;100306.17;;;11.99;100.00
34034;BME280;63481;52.588;22.472;2023-06-14T03:13:28;100306.13;;;12.02;100.00
34034;BME280;63481;52.588;22.472;2023-06-14T03:14:24;100310.09;;;12.05;100.00
34034;BME280;63481;52.588;22.472;2023-06-14T03:15:17;100306.45;;;12.11;100.00
34034;BME280;63481;52.588;22.472;2023-06-14T03:16:12;100311.84;;;12.20;100.00
34034;BME280;63481;52.588;22.472;2023-06-14T03:17:05;100308.00;;;12.20;100.00
34034;BME280;63481;52.588;22.472;2023-06-14T03:18:00;100310.92;;;12.19;100.00
34034;BME280;63481;52.588;22.472;2023-06-14T03:18:53;100310.27;;;12.15;100.00
34034;BME280;63481;52.588;22.472;2023-06-14T03:19:46;100308.00;;;12.14;100.00
34034;BME280;63481;52.588;22.472;2023-06-14T03:20:39;100307.42;;;12.14;100.00
34034;BME280;63481;52.588;22.472;2023-06-14T03:21:33;100306.08;;;12.11;100.00
34034;BME280;63481;52.588;22.472;2023-06-14T03:22:28;100304.22;;;12.12;100.00
34034;BME280;63481;52.588;22.472;2023-06-14T03:23:21;100303.63;;;12.10;100.00
34034;BME280;63481;52.588;22.472;2023-06-14T03:24:14;100304.26;;;12.14;100.00
34034;BME280;63481;52.588;22.472;2023-06-14T03:25:09;100304.20;;;12.17;100.00
34034;BME280;63481;52.588;22.472;2023-06-14T03:26:03;100306.63;;;12.24;100.00
34034;BME280;63481;52.588;22.472;2023-06-14T03:26:56;100311.48;;;12.27;100.00
34034;BME280;63481;52.588;22.472;2023-06-14T03:27:49;100315.23;;;12.30;100.00
34034;BME280;63481;52.588;22.472;2023-06-14T03:28:46;100312.76;;;12.34;100.00
34034;BME280;63481;52.588;22.472;2023-06-14T03:29:39;100312.48;;;12.32;100.00
34034;BME280;63481;52.588;22.472;2023-06-14T03:30:33;100312.22;;;12.34;100.00
34034;BME280;63481;52.588;22.472;2023-06-14T03:31:29;100310.91;;;12.33;100.00
34034;BME280;63481;52.588;22.472;2023-06-14T03:32:25;100311.46;;;12.38;100.00
34034;BME280;63481;52.588;22.472;2023-06-14T03:33:18;100316.09;;;12.35;100.00
34034;BME280;63481;52.588;22.472;2023-06-14T03:34:11;100316.00;;;12.35;100.00
34034;BME280;63481;52.588;22.472;2023-06-14T03:35:05;100314.52;;;12.29;100.00
34034;BME280;63481;52.588;22.472;2023-06-14T03:35:58;100313.49;;;12.29;100.00
34034;BME280;63481;52.588;22.472;2023-06-14T03:36:52;100314.86;;;12.28;100.00
34034;BME280;63481;52.588;22.472;2023-06-14T03:37:46;100313.80;;;12.26;100.00
34034;BME280;63481;52.588;22.472;2023-06-14T03:38:39;100310.45;;;12.23;100.00
34034;BME280;63481;52.588;22.472;2023-06-14T03:39:32;100311.80;;;12.25;100.00
34034;BME280;63481;52.588;22.472;2023-06-14T03:40:25;100310.48;;;12.30;100.00
34034;BME280;63481;52.588;22.472;2023-06-14T03:41:19;100313.43;;;12.32;100.00
34034;BME280;63481;52.588;22.472;2023-06-14T03:42:13;100313.59;;;12.38;100.00
34034;BME280;63481;52.588;22.472;2023-06-14T03:43:07;100318.50;;;12.43;100.00
34034;BME280;63481;52.588;22.472;2023-06-14T03:44:00;100317.13;;;12.46;100.00
34034;BME280;63481;52.588;22.472;2023-06-14T03:44:52;100317.16;;;12.52;100.00
34034;BME280;63481;52.588;22.472;2023-06-14T03:45:46;100319.05;;;12.52;100.00
34034;BME280;63481;52.588;22.472;2023-06-14T03:46:39;100318.51;;;12.60;100.00
34034;BME280;63481;52.588;22.472;2023-06-14T03:47:33;100315.58;;;12.60;100.00
34034;BME280;63481;52.588;22.472;2023-06-14T03:48:27;100317.95;;;12.55;100.00
34034;BME280;63481;52.588;22.472;2023-06-14T03:49:19;100319.42;;;12.62;100.00
34034;BME280;63481;52.588;22.472;2023-06-14T03:50:13;100318.80;;;12.60;100.00
34034;BME280;63481;52.588;22.472;2023-06-14T03:51:06;100323.96;;;12.62;100.00
34034;BME280;63481;52.588;22.472;2023-06-14T03:51:59;100323.54;;;12.64;100.00
34034;BME280;63481;52.588;22.472;2023-06-14T03:52:53;100323.63;;;12.63;99.98
34034;BME280;63481;52.588;22.472;2023-06-14T03:53:46;100327.58;;;12.68;100.00
34034;BME280;63481;52.588;22.472;2023-06-14T03:54:39;100325.45;;;12.70;99.97
34034;BME280;63481;52.588;22.472;2023-06-14T03:55:32;100326.15;;;12.62;99.92
34034;BME280;63481;52.588;22.472;2023-06-14T03:56:26;100327.67;;;12.61;100.00
34034;BME280;63481;52.588;22.472;2023-06-14T03:57:19;100326.62;;;12.58;100.00
34034;BME280;63481;52.588;22.472;2023-06-14T03:58:14;100328.34;;;12.53;100.00
34034;BME280;63481;52.588;22.472;2023-06-14T03:59:07;100328.68;;;12.51;100.00
34034;BME280;63481;52.588;22.472;2023-06-14T04:00:00;100331.10;;;12.48;100.00
34034;BME280;63481;52.588;22.472;2023-06-14T04:00:52;100328.39;;;12.47;100.00
34034;BME280;63481;52.588;22.472;2023-06-14T04:01:45;100327.02;;;12.50;100.00
34034;BME280;63481;52.588;22.472;2023-06-14T04:02:40;100328.83;;;12.50;100.00
34034;BME280;63481;52.588;22.472;2023-06-14T04:03:34;100326.82;;;12.59;100.00
34034;BME280;63481;52.588;22.472;2023-06-14T04:04:28;100323.79;;;12.67;100.00
34034;BME280;63481;52.588;22.472;2023-06-14T04:05:21;100323.10;;;12.68;100.00
34034;BME280;63481;52.588;22.472;2023-06-14T04:06:17;100322.73;;;12.67;100.00
34034;BME280;63481;52.588;22.472;2023-06-14T04:07:12;100321.56;;;12.69;100.00
34034;BME280;63481;52.588;22.472;2023-06-14T04:08:05;100320.10;;;12.67;100.00
34034;BME280;63481;52.588;22.472;2023-06-14T04:09:01;100320.31;;;12.71;100.00
34034;BME280;63481;52.588;22.472;2023-06-14T04:09:55;100313.22;;;12.81;99.98
34034;BME280;63481;52.588;22.472;2023-06-14T04:10:48;100313.55;;;12.77;99.94
34034;BME280;63481;52.588;22.472;2023-06-14T04:11:40;100318.99;;;12.72;99.99
34034;BME280;63481;52.588;22.472;2023-06-14T04:12:34;100312.10;;;12.68;100.00
34034;BME280;63481;52.588;22.472;2023-06-14T04:13:27;100310.83;;;12.63;100.00
34034;BME280;63481;52.588;22.472;2023-06-14T04:14:20;100315.02;;;12.63;100.00
34034;BME280;63481;52.588;22.472;2023-06-14T04:15:12;100316.27;;;12.61;100.00
34034;BME280;63481;52.588;22.472;2023-06-14T04:16:06;100315.27;;;12.63;100.00
34034;BME280;63481;52.588;22.472;2023-06-14T04:17:02;100315.03;;;12.62;100.00
34034;BME280;63481;52.588;22.472;2023-06-14T04:17:54;100313.95;;;12.63;100.00
34034;BME280;63481;52.588;22.472;2023-06-14T04:18:50;100315.38;;;12.61;100.00
34034;BME280;63481;52.588;22.472;2023-06-14T04:19:44;100315.24;;;12.61;100.00
34034;BME280;63481;52.588;22.472;2023-06-14T04:20:37;100318.15;;;12.58;100.00
34034;BME280;63481;52.588;22.472;2023-06-14T04:21:30;100315.56;;;12.58;100.00
34034;BME280;63481;52.588;22.472;2023-06-14T04:22:28;100316.73;;;12.62;100.00
34034;BME280;63481;52.588;22.472;2023-06-14T04:23:22;100314.95;;;12.63;100.00
34034;BME280;63481;52.588;22.472;2023-06-14T04:24:16;100318.48;;;12.64;100.00
34034;BME280;63481;52.588;22.472;2023-06-14T04:25:10;100320.22;;;12.67;100.00
34034;BME280;63481;52.588;22.472;2023-06-14T04:26:04;100318.20;;;12.67;100.00
34034;BME280;63481;52.588;22.472;2023-06-14T04:26:58;100320.96;;;12.67;100.00
34034;BME280;63481;52.588;22.472;2023-06-14T04:27:51;100322.69;;;12.67;100.00
34034;BME280;63481;52.588;22.472;2023-06-14T04:28:44;100322.08;;;12.71;100.00
34034;BME280;63481;52.588;22.472;2023-06-14T04:29:38;100325.25;;;12.72;100.00
34034;BME280;63481;52.588;22.472;2023-06-14T04:30:34;100328.02;;;12.71;100.00
34034;BME280;63481;52.588;22.472;2023-06-14T04:31:29;100328.97;;;12.74;100.00
34034;BME280;63481;52.588;22.472;2023-06-14T04:32:26;100327.35;;;12.77;100.00
34034;BME280;63481;52.588;22.472;2023-06-14T04:33:19;100332.52;;;12.82;100.00
34034;BME280;63481;52.588;22.472;2023-06-14T04:34:12;100330.23;;;12.90;100.00
34034;BME280;63481;52.588;22.472;2023-06-14T04:35:18;100328.83;;;12.91;100.00
34034;BME280;63481;52.588;22.472;2023-06-14T04:36:13;100332.23;;;12.90;100.00
34034;BME280;63481;52.588;22.472;2023-06-14T04:37:06;100330.90;;;12.94;100.00
34034;BME280;63481;52.588;22.472;2023-06-14T04:38:07;100330.63;;;13.04;99.88